sensor_id;sensor_type;location;lat;lon;timestamp;P1;durP1;ratioP1;P2;durP2;ratioP2
35969;SDS011;22448;51.298;6.430;2023-11-18T00:02:04;118.07;;;40.83;;
35969;SDS011;22448;51.298;6.430;2023-11-18T00:04:32;109.78;;;40.83;;
35969;SDS011;22448;51.298;6.430;2023-11-18T00:06:59;105.30;;;38.95;;
35969;SDS011;22448;51.298;6.430;2023-11-18T00:09:26;105.72;;;37.65;;
35969;SDS011;22448;51.298;6.430;2023-11-18T00:11:53;104.05;;;39.85;;
35969;SDS011;22448;51.298;6.430;2023-11-18T00:14:20;98.38;;;39.85;;
35969;SDS011;22448;51.298;6.430;2023-11-18T00:16:48;106.00;;;39.35;;
35969;SDS011;22448;51.298;6.430;2023-11-18T00:19:15;104.78;;;39.92;;
35969;SDS011;22448;51.298;6.430;2023-11-18T00:21:42;102.75;;;38.25;;
35969;SDS011;22448;51.298;6.430;2023-11-18T00:24:10;107.80;;;38.97;;
35969;SDS011;22448;51.298;6.430;2023-11-18T00:26:37;105.13;;;38.47;;
35969;SDS011;22448;51.298;6.430;2023-11-18T00:29:05;100.60;;;39.17;;
35969;SDS011;22448;51.298;6.430;2023-11-18T00:31:32;106.55;;;41.35;;
35969;SDS011;22448;51.298;6.430;2023-11-18T00:33:59;96.47;;;39.25;;
35969;SDS011;22448;51.298;6.430;2023-11-18T00:36:26;88.95;;;38.53;;
35969;SDS011;22448;51.298;6.430;2023-11-18T00:38:55;100.43;;;38.03;;
35969;SDS011;22448;51.298;6.430;2023-11-18T00:41:22;89.50;;;38.90;;
35969;SDS011;22448;51.298;6.430;2023-11-18T00:43:49;96.57;;;39.65;;
35969;SDS011;22448;51.298;6.430;2023-11-18T00:46:16;96.00;;;37.38;;
35969;SDS011;22448;51.298;6.430;2023-11-18T00:48:44;86.72;;;37.60;;
35969;SDS011;22448;51.298;6.430;2023-11-18T00:51:11;89.22;;;36.08;;
35969;SDS011;22448;51.298;6.430;2023-11-18T00:53:38;84.72;;;35.72;;
35969;SDS011;22448;51.298;6.430;2023-11-18T00:56:05;97.25;;;36.20;;
35969;SDS011;22448;51.298;6.430;2023-11-18T00:58:36;80.03;;;33.90;;
35969;SDS011;22448;51.298;6.430;2023-11-18T01:01:07;80.05;;;34.05;;
35969;SDS011;22448;51.298;6.430;2023-11-18T01:03:34;76.15;;;32.55;;
35969;SDS011;22448;51.298;6.430;2023-11-18T01:06:01;70.90;;;33.03;;
35969;SDS011;22448;51.298;6.430;2023-11-18T01:08:29;76.95;;;33.88;;
35969;SDS011;22448;51.298;6.430;2023-11-18T01:10:56;65.57;;;32.75;;
35969;SDS011;22448;51.298;6.430;2023-11-18T01:13:23;77.00;;;34.08;;
35969;SDS011;22448;51.298;6.430;2023-11-18T01:15:53;77.55;;;33.30;;
35969;SDS011;22448;51.298;6.430;2023-11-18T01:18:20;80.50;;;33.85;;
35969;SDS011;22448;51.298;6.430;2023-11-18T01:20:47;71.53;;;32.85;;
35969;SDS011;22448;51.298;6.430;2023-11-18T01:23:14;75.13;;;32.38;;
35969;SDS011;22448;51.298;6.430;2023-11-18T01:25:42;82.43;;;33.55;;
35969;SDS011;22448;51.298;6.430;2023-11-18T01:28:09;71.30;;;32.63;;
35969;SDS011;22448;51.298;6.430;2023-11-18T01:30:37;74.10;;;33.53;;
35969;SDS011;22448;51.298;6.430;2023-11-18T01:33:04;78.63;;;32.65;;
35969;SDS011;22448;51.298;6.430;2023-11-18T01:35:31;76.80;;;33.20;;
35969;SDS011;22448;51.298;6.430;2023-11-18T01:37:58;72.22;;;33.00;;
35969;SDS011;22448;51.298;6.430;2023-11-18T01:40:25;73.80;;;33.50;;
35969;SDS011;22448;51.298;6.430;2023-11-18T01:42:52;75.32;;;32.47;;
35969;SDS011;22448;51.298;6.430;2023-11-18T01:45:19;84.53;;;33.65;;
35969;SDS011;22448;51.298;6.430;2023-11-18T01:47:46;78.20;;;34.40;;
35969;SDS011;22448;51.298;6.430;2023-11-18T01:50:15;82.03;;;33.90;;
35969;SDS011;22448;51.298;6.430;2023-11-18T01:52:45;75.45;;;34.85;;
35969;SDS011;22448;51.298;6.430;2023-11-18T01:55:13;83.65;;;35.35;;
35969;SDS011;22448;51.298;6.430;2023-11-18T01:57:40;82.88;;;34.33;;
35969;SDS011;22448;51.298;6.430;2023-11-18T02:00:11;81.03;;;34.65;;
35969;SDS011;22448;51.298;6.430;2023-11-18T02:02:40;82.15;;;34.45;;
35969;SDS011;22448;51.298;6.430;2023-11-18T02:05:07;86.18;;;36.08;;
35969;SDS011;22448;51.298;6.430;2023-11-18T02:07:35;91.40;;;36.88;;
35969;SDS011;22448;51.298;6.430;2023-11-18T02:10:04;82.57;;;36.90;;
35969;SDS011;22448;51.298;6.430;2023-11-18T02:15:06;96.07;;;40.10;;
35969;SDS011;22448;51.298;6.430;2023-11-18T02:17:37;90.00;;;37.85;;
35969;SDS011;22448;51.298;6.430;2023-11-18T02:20:06;89.57;;;38.67;;
35969;SDS011;22448;51.298;6.430;2023-11-18T02:22:41;90.38;;;37.63;;
35969;SDS011;22448;51.298;6.430;2023-11-18T02:25:09;89.57;;;38.10;;
35969;SDS011;22448;51.298;6.430;2023-11-18T02:27:41;107.78;;;41.08;;
35969;SDS011;22448;51.298;6.430;2023-11-18T02:30:08;104.13;;;41.63;;
35969;SDS011;22448;51.298;6.430;2023-11-18T02:32:40;92.63;;;38.70;;
35969;SDS011;22448;51.298;6.430;2023-11-18T02:35:30;96.40;;;41.20;;
35969;SDS011;22448;51.298;6.430;2023-11-18T02:38:04;93.35;;;39.47;;
35969;SDS011;22448;51.298;6.430;2023-11-18T02:40:35;98.43;;;41.22;;
35969;SDS011;22448;51.298;6.430;2023-11-18T02:43:10;101.75;;;44.53;;
35969;SDS011;22448;51.298;6.430;2023-11-18T02:45:38;106.28;;;43.58;;
35969;SDS011;22448;51.298;6.430;2023-11-18T02:48:07;98.53;;;39.88;;
35969;SDS011;22448;51.298;6.430;2023-11-18T02:50:35;99.05;;;39.55;;
35969;SDS011;22448;51.298;6.430;2023-11-18T02:53:03;84.38;;;38.10;;
35969;SDS011;22448;51.298;6.430;2023-11-18T02:55:30;99.15;;;39.45;;
35969;SDS011;22448;51.298;6.430;2023-11-18T02:57:57;86.15;;;37.58;;
35969;SDS011;22448;51.298;6.430;2023-11-18T03:00:24;98.13;;;36.95;;
35969;SDS011;22448;51.298;6.430;2023-11-18T03:02:51;98.40;;;39.67;;
35969;SDS011;22448;51.298;6.430;2023-11-18T03:05:20;100.13;;;41.00;;
35969;SDS011;22448;51.298;6.430;2023-11-18T03:07:48;111.75;;;42.13;;
35969;SDS011;22448;51.298;6.430;2023-11-18T03:10:21;96.18;;;39.80;;
35969;SDS011;22448;51.298;6.430;2023-11-18T03:12:52;101.93;;;40.75;;
35969;SDS011;22448;51.298;6.430;2023-11-18T03:15:20;106.72;;;42.85;;
35969;SDS011;22448;51.298;6.430;2023-11-18T03:17:50;117.32;;;45.03;;
35969;SDS011;22448;51.298;6.430;2023-11-18T03:20:19;118.68;;;42.70;;
35969;SDS011;22448;51.298;6.430;2023-11-18T03:22:47;124.93;;;45.42;;
35969;SDS011;22448;51.298;6.430;2023-11-18T03:25:15;116.68;;;43.42;;
35969;SDS011;22448;51.298;6.430;2023-11-18T03:27:43;116.20;;;43.35;;
35969;SDS011;22448;51.298;6.430;2023-11-18T03:30:11;138.82;;;43.90;;
35969;SDS011;22448;51.298;6.430;2023-11-18T03:32:38;142.60;;;44.10;;
35969;SDS011;22448;51.298;6.430;2023-11-18T03:35:09;132.63;;;43.65;;
35969;SDS011;22448;51.298;6.430;2023-11-18T03:37:39;161.43;;;47.72;;
35969;SDS011;22448;51.298;6.430;2023-11-18T03:40:09;154.32;;;47.50;;
35969;SDS011;22448;51.298;6.430;2023-11-18T03:42:38;154.90;;;46.55;;
35969;SDS011;22448;51.298;6.430;2023-11-18T03:45:07;176.75;;;49.80;;
35969;SDS011;22448;51.298;6.430;2023-11-18T03:47:36;157.02;;;48.03;;
35969;SDS011;22448;51.298;6.430;2023-11-18T03:50:03;179.35;;;50.30;;
35969;SDS011;22448;51.298;6.430;2023-11-18T03:52:31;182.43;;;50.67;;
35969;SDS011;22448;51.298;6.430;2023-11-18T03:54:59;164.32;;;50.17;;
35969;SDS011;22448;51.298;6.430;2023-11-18T03:57:26;174.38;;;49.20;;
35969;SDS011;22448;51.298;6.430;2023-11-18T03:59:53;200.43;;;50.58;;
35969;SDS011;22448;51.298;6.430;2023-11-18T04:02:20;191.65;;;49.28;;
35969;SDS011;22448;51.298;6.430;2023-11-18T04:04:47;195.25;;;52.10;;
35969;SDS011;22448;51.298;6.430;2023-11-18T04:07:15;212.35;;;54.63;;
35969;SDS011;22448;51.298;6.430;2023-11-18T04:09:42;204.15;;;52.42;;
35969;SDS011;22448;51.298;6.430;2023-11-18T04:12:10;202.52;;;52.47;;
35969;SDS011;22448;51.298;6.430;2023-11-18T04:14:38;174.23;;;48.70;;
35969;SDS011;22448;51.298;6.430;2023-11-18T04:17:05;192.68;;;49.95;;
35969;SDS011;22448;51.298;6.430;2023-11-18T04:19:34;193.35;;;52.33;;
35969;SDS011;22448;51.298;6.430;2023-11-18T04:22:01;197.48;;;50.67;;
35969;SDS011;22448;51.298;6.430;2023-11-18T04:24:28;203.65;;;50.80;;
35969;SDS011;22448;51.298;6.430;2023-11-18T04:26:56;205.82;;;50.70;;
35969;SDS011;22448;51.298;6.430;2023-11-18T04:29:24;191.55;;;50.05;;
35969;SDS011;22448;51.298;6.430;2023-11-18T04:31:50;203.43;;;51.17;;
35969;SDS011;22448;51.298;6.430;2023-11-18T04:34:19;202.27;;;51.75;;
35969;SDS011;22448;51.298;6.430;2023-11-18T04:36:46;228.48;;;53.95;;
35969;SDS011;22448;51.298;6.430;2023-11-18T04:39:14;218.10;;;49.70;;
35969;SDS011;22448;51.298;6.430;2023-11-18T04:41:42;230.93;;;52.13;;
35969;SDS011;22448;51.298;6.430;2023-11-18T04:44:09;232.05;;;51.53;;
35969;SDS011;22448;51.298;6.430;2023-11-18T04:46:36;224.57;;;54.38;;
35969;SDS011;22448;51.298;6.430;2023-11-18T04:49:03;237.63;;;56.88;;
35969;SDS011;22448;51.298;6.430;2023-11-18T04:51:32;232.27;;;54.15;;
35969;SDS011;22448;51.298;6.430;2023-11-18T04:53:59;230.23;;;54.38;;
35969;SDS011;22448;51.298;6.430;2023-11-18T04:56:26;234.95;;;55.95;;
35969;SDS011;22448;51.298;6.430;2023-11-18T04:58:54;223.38;;;55.20;;
35969;SDS011;22448;51.298;6.430;2023-11-18T05:01:21;224.05;;;52.95;;
35969;SDS011;22448;51.298;6.430;2023-11-18T05:03:48;234.73;;;59.20;;
35969;SDS011;22448;51.298;6.430;2023-11-18T05:06:15;244.57;;;57.83;;
35969;SDS011;22448;51.298;6.430;2023-11-18T05:08:42;226.98;;;54.72;;
35969;SDS011;22448;51.298;6.430;2023-11-18T05:11:09;217.18;;;53.65;;
35969;SDS011;22448;51.298;6.430;2023-11-18T05:13:36;220.20;;;55.53;;
35969;SDS011;22448;51.298;6.430;2023-11-18T05:16:04;229.07;;;57.72;;
35969;SDS011;22448;51.298;6.430;2023-11-18T05:18:32;240.13;;;56.30;;
35969;SDS011;22448;51.298;6.430;2023-11-18T05:21:03;237.27;;;60.60;;
35969;SDS011;22448;51.298;6.430;2023-11-18T05:23:34;245.48;;;58.75;;
35969;SDS011;22448;51.298;6.430;2023-11-18T05:26:05;254.38;;;63.50;;
35969;SDS011;22448;51.298;6.430;2023-11-18T05:28:32;231.77;;;58.90;;
35969;SDS011;22448;51.298;6.430;2023-11-18T05:31:00;218.82;;;57.85;;
35969;SDS011;22448;51.298;6.430;2023-11-18T05:33:31;233.07;;;58.17;;
35969;SDS011;22448;51.298;6.430;2023-11-18T05:36:01;222.73;;;60.65;;
35969;SDS011;22448;51.298;6.430;2023-11-18T05:38:31;208.52;;;54.08;;
35969;SDS011;22448;51.298;6.430;2023-11-18T05:41:01;215.27;;;56.22;;
35969;SDS011;22448;51.298;6.430;2023-11-18T05:43:31;218.55;;;58.15;;
35969;SDS011;22448;51.298;6.430;2023-11-18T05:46:04;213.38;;;54.63;;
35969;SDS011;22448;51.298;6.430;2023-11-18T05:48:52;219.32;;;57.30;;
35969;SDS011;22448;51.298;6.430;2023-11-18T05:51:23;192.25;;;52.67;;
35969;SDS011;22448;51.298;6.430;2023-11-18T05:53:52;208.52;;;55.42;;
35969;SDS011;22448;51.298;6.430;2023-11-18T05:56:19;204.95;;;53.83;;
35969;SDS011;22448;51.298;6.430;2023-11-18T05:58:49;190.65;;;54.13;;
35969;SDS011;22448;51.298;6.430;2023-11-18T06:01:16;201.48;;;54.92;;
35969;SDS011;22448;51.298;6.430;2023-11-18T06:03:44;201.45;;;53.00;;
35969;SDS011;22448;51.298;6.430;2023-11-18T06:06:13;207.65;;;54.40;;
35969;SDS011;22448;51.298;6.430;2023-11-18T06:08:46;178.15;;;51.83;;
35969;SDS011;22448;51.298;6.430;2023-11-18T06:11:14;194.43;;;55.20;;
35969;SDS011;22448;51.298;6.430;2023-11-18T06:13:43;190.63;;;51.45;;
35969;SDS011;22448;51.298;6.430;2023-11-18T06:18:41;187.00;;;53.10;;
35969;SDS011;22448;51.298;6.430;2023-11-18T06:21:14;166.60;;;50.30;;
35969;SDS011;22448;51.298;6.430;2023-11-18T06:23:42;163.68;;;50.35;;
35969;SDS011;22448;51.298;6.430;2023-11-18T06:26:10;175.90;;;51.45;;
35969;SDS011;22448;51.298;6.430;2023-11-18T06:28:38;151.63;;;48.05;;
35969;SDS011;22448;51.298;6.430;2023-11-18T06:31:06;171.18;;;49.17;;
35969;SDS011;22448;51.298;6.430;2023-11-18T06:33:39;155.48;;;47.75;;
35969;SDS011;22448;51.298;6.430;2023-11-18T06:38:41;170.32;;;48.80;;
35969;SDS011;22448;51.298;6.430;2023-11-18T06:41:08;163.88;;;47.13;;
35969;SDS011;22448;51.298;6.430;2023-11-18T06:43:39;156.40;;;47.28;;
35969;SDS011;22448;51.298;6.430;2023-11-18T06:46:16;141.57;;;44.53;;
35969;SDS011;22448;51.298;6.430;2023-11-18T06:48:50;159.70;;;47.70;;
35969;SDS011;22448;51.298;6.430;2023-11-18T06:51:21;146.10;;;46.38;;
35969;SDS011;22448;51.298;6.430;2023-11-18T06:53:51;158.45;;;47.92;;
35969;SDS011;22448;51.298;6.430;2023-11-18T06:56:18;156.55;;;47.38;;
35969;SDS011;22448;51.298;6.430;2023-11-18T06:58:45;145.07;;;47.67;;
35969;SDS011;22448;51.298;6.430;2023-11-18T07:01:13;143.95;;;46.28;;
35969;SDS011;22448;51.298;6.430;2023-11-18T07:03:41;134.32;;;44.83;;
35969;SDS011;22448;51.298;6.430;2023-11-18T07:06:10;149.45;;;45.90;;
35969;SDS011;22448;51.298;6.430;2023-11-18T07:08:40;136.85;;;44.70;;
35969;SDS011;22448;51.298;6.430;2023-11-18T07:11:07;128.65;;;44.50;;
35969;SDS011;22448;51.298;6.430;2023-11-18T07:13:34;138.88;;;45.35;;
35969;SDS011;22448;51.298;6.430;2023-11-18T07:16:02;136.50;;;43.65;;
35969;SDS011;22448;51.298;6.430;2023-11-18T07:18:31;142.57;;;42.95;;
35969;SDS011;22448;51.298;6.430;2023-11-18T07:21:01;129.18;;;42.53;;
35969;SDS011;22448;51.298;6.430;2023-11-18T07:23:31;117.97;;;40.28;;
35969;SDS011;22448;51.298;6.430;2023-11-18T07:25:59;125.63;;;42.78;;
35969;SDS011;22448;51.298;6.430;2023-11-18T07:28:27;115.90;;;40.45;;
35969;SDS011;22448;51.298;6.430;2023-11-18T07:30:54;115.88;;;41.63;;
35969;SDS011;22448;51.298;6.430;2023-11-18T07:33:21;117.72;;;40.42;;
35969;SDS011;22448;51.298;6.430;2023-11-18T07:35:49;116.97;;;40.25;;
35969;SDS011;22448;51.298;6.430;2023-11-18T07:38:16;114.00;;;39.47;;
35969;SDS011;22448;51.298;6.430;2023-11-18T07:40:46;105.63;;;38.50;;
35969;SDS011;22448;51.298;6.430;2023-11-18T07:43:17;103.60;;;38.53;;
35969;SDS011;22448;51.298;6.430;2023-11-18T07:45:44;104.25;;;39.35;;
35969;SDS011;22448;51.298;6.430;2023-11-18T07:48:13;112.15;;;39.83;;
35969;SDS011;22448;51.298;6.430;2023-11-18T07:50:44;105.43;;;40.13;;
35969;SDS011;22448;51.298;6.430;2023-11-18T07:53:11;105.40;;;39.00;;
35969;SDS011;22448;51.298;6.430;2023-11-18T07:55:40;104.40;;;37.53;;
35969;SDS011;22448;51.298;6.430;2023-11-18T07:58:10;105.28;;;38.22;;
35969;SDS011;22448;51.298;6.430;2023-11-18T08:00:41;98.60;;;38.15;;
35969;SDS011;22448;51.298;6.430;2023-11-18T08:03:09;92.22;;;36.33;;
35969;SDS011;22448;51.298;6.430;2023-11-18T08:05:41;104.88;;;36.80;;
35969;SDS011;22448;51.298;6.430;2023-11-18T08:08:12;95.82;;;37.65;;
35969;SDS011;22448;51.298;6.430;2023-11-18T08:10:40;91.82;;;36.90;;
35969;SDS011;22448;51.298;6.430;2023-11-18T08:13:09;97.07;;;36.92;;
35969;SDS011;22448;51.298;6.430;2023-11-18T08:15:42;97.15;;;38.33;;
35969;SDS011;22448;51.298;6.430;2023-11-18T08:18:12;89.82;;;35.47;;
35969;SDS011;22448;51.298;6.430;2023-11-18T08:20:39;96.20;;;37.05;;
35969;SDS011;22448;51.298;6.430;2023-11-18T08:23:07;95.75;;;37.50;;
35969;SDS011;22448;51.298;6.430;2023-11-18T08:25:34;81.13;;;35.47;;
35969;SDS011;22448;51.298;6.430;2023-11-18T08:28:07;80.15;;;34.13;;
35969;SDS011;22448;51.298;6.430;2023-11-18T08:30:36;87.05;;;33.25;;
35969;SDS011;22448;51.298;6.430;2023-11-18T08:33:04;78.40;;;36.00;;
35969;SDS011;22448;51.298;6.430;2023-11-18T08:35:34;76.97;;;31.92;;
35969;SDS011;22448;51.298;6.430;2023-11-18T08:38:02;71.43;;;30.90;;
35969;SDS011;22448;51.298;6.430;2023-11-18T08:40:30;75.43;;;31.25;;
35969;SDS011;22448;51.298;6.430;2023-11-18T08:42:57;72.13;;;32.25;;
35969;SDS011;22448;51.298;6.430;2023-11-18T08:45:25;60.40;;;29.70;;
35969;SDS011;22448;51.298;6.430;2023-11-18T08:47:56;70.10;;;30.73;;
35969;SDS011;22448;51.298;6.430;2023-11-18T08:50:24;69.65;;;29.25;;
35969;SDS011;22448;51.298;6.430;2023-11-18T08:52:52;63.13;;;28.63;;
35969;SDS011;22448;51.298;6.430;2023-11-18T08:55:26;58.65;;;26.67;;
35969;SDS011;22448;51.298;6.430;2023-11-18T08:58:10;54.88;;;24.83;;
35969;SDS011;22448;51.298;6.430;2023-11-18T09:00:42;54.22;;;25.85;;
35969;SDS011;22448;51.298;6.430;2023-11-18T09:03:09;52.08;;;25.27;;
35969;SDS011;22448;51.298;6.430;2023-11-18T09:05:55;60.78;;;24.50;;
35969;SDS011;22448;51.298;6.430;2023-11-18T09:08:28;50.00;;;24.02;;
35969;SDS011;22448;51.298;6.430;2023-11-18T09:11:03;52.80;;;24.60;;
35969;SDS011;22448;51.298;6.430;2023-11-18T09:13:32;48.95;;;24.13;;
35969;SDS011;22448;51.298;6.430;2023-11-18T09:16:03;51.75;;;24.25;;
35969;SDS011;22448;51.298;6.430;2023-11-18T09:18:30;56.25;;;24.00;;
35969;SDS011;22448;51.298;6.430;2023-11-18T09:21:00;50.05;;;23.73;;
35969;SDS011;22448;51.298;6.430;2023-11-18T09:23:30;48.10;;;22.67;;
35969;SDS011;22448;51.298;6.430;2023-11-18T09:25:58;40.78;;;21.52;;
35969;SDS011;22448;51.298;6.430;2023-11-18T09:28:26;45.60;;;22.90;;
35969;SDS011;22448;51.298;6.430;2023-11-18T09:30:56;45.70;;;21.38;;
35969;SDS011;22448;51.298;6.430;2023-11-18T09:33:25;41.72;;;21.90;;
35969;SDS011;22448;51.298;6.430;2023-11-18T09:35:55;40.30;;;20.75;;
35969;SDS011;22448;51.298;6.430;2023-11-18T09:38:26;45.15;;;21.38;;
35969;SDS011;22448;51.298;6.430;2023-11-18T09:40:57;42.20;;;20.00;;
35969;SDS011;22448;51.298;6.430;2023-11-18T09:43:30;43.33;;;21.52;;
35969;SDS011;22448;51.298;6.430;2023-11-18T09:46:06;34.83;;;19.35;;
35969;SDS011;22448;51.298;6.430;2023-11-18T09:48:46;42.20;;;20.65;;
35969;SDS011;22448;51.298;6.430;2023-11-18T09:51:27;44.70;;;20.30;;
35969;SDS011;22448;51.298;6.430;2023-11-18T09:53:59;44.15;;;21.08;;
35969;SDS011;22448;51.298;6.430;2023-11-18T09:56:49;33.72;;;19.70;;
35969;SDS011;22448;51.298;6.430;2023-11-18T09:59:28;40.50;;;20.08;;
35969;SDS011;22448;51.298;6.430;2023-11-18T10:02:02;44.33;;;19.83;;
35969;SDS011;22448;51.298;6.430;2023-11-18T10:04:31;38.33;;;20.02;;
35969;SDS011;22448;51.298;6.430;2023-11-18T10:06:58;41.25;;;22.00;;
35969;SDS011;22448;51.298;6.430;2023-11-18T10:09:29;39.45;;;19.52;;
35969;SDS011;22448;51.298;6.430;2023-11-18T10:12:04;36.80;;;19.50;;
35969;SDS011;22448;51.298;6.430;2023-11-18T10:14:33;37.75;;;19.38;;
35969;SDS011;22448;51.298;6.430;2023-11-18T10:17:06;36.40;;;19.50;;
35969;SDS011;22448;51.298;6.430;2023-11-18T10:19:50;39.45;;;20.33;;
35969;SDS011;22448;51.298;6.430;2023-11-18T10:22:27;34.65;;;19.52;;
35969;SDS011;22448;51.298;6.430;2023-11-18T10:24:56;37.25;;;19.52;;
35969;SDS011;22448;51.298;6.430;2023-11-18T10:27:24;32.78;;;17.70;;
35969;SDS011;22448;51.298;6.430;2023-11-18T10:30:11;34.33;;;18.27;;
35969;SDS011;22448;51.298;6.430;2023-11-18T10:32:58;36.65;;;17.85;;
35969;SDS011;22448;51.298;6.430;2023-11-18T10:35:33;32.05;;;18.13;;
35969;SDS011;22448;51.298;6.430;2023-11-18T10:38:01;32.72;;;18.13;;
35969;SDS011;22448;51.298;6.430;2023-11-18T10:40:31;39.60;;;20.40;;
35969;SDS011;22448;51.298;6.430;2023-11-18T10:43:04;34.67;;;19.35;;
35969;SDS011;22448;51.298;6.430;2023-11-18T10:45:36;35.85;;;17.77;;
35969;SDS011;22448;51.298;6.430;2023-11-18T10:48:11;35.13;;;18.48;;
35969;SDS011;22448;51.298;6.430;2023-11-18T10:50:45;39.75;;;18.23;;
35969;SDS011;22448;51.298;6.430;2023-11-18T10:53:14;29.88;;;16.73;;
35969;SDS011;22448;51.298;6.430;2023-11-18T10:55:43;35.22;;;17.80;;
35969;SDS011;22448;51.298;6.430;2023-11-18T10:58:13;31.73;;;17.25;;
35969;SDS011;22448;51.298;6.430;2023-11-18T11:08:26;31.33;;;17.55;;
35969;SDS011;22448;51.298;6.430;2023-11-18T11:11:07;30.85;;;17.60;;
35969;SDS011;22448;51.298;6.430;2023-11-18T11:13:34;31.83;;;17.23;;
35969;SDS011;22448;51.298;6.430;2023-11-18T11:16:04;32.63;;;16.17;;
35969;SDS011;22448;51.298;6.430;2023-11-18T11:18:36;36.20;;;18.50;;
35969;SDS011;22448;51.298;6.430;2023-11-18T11:21:15;33.65;;;18.23;;
35969;SDS011;22448;51.298;6.430;2023-11-18T11:26:34;33.90;;;17.95;;
35969;SDS011;22448;51.298;6.430;2023-11-18T11:29:21;35.13;;;18.10;;
35969;SDS011;22448;51.298;6.430;2023-11-18T11:32:30;33.03;;;17.23;;
35969;SDS011;22448;51.298;6.430;2023-11-18T11:35:07;30.40;;;16.48;;
35969;SDS011;22448;51.298;6.430;2023-11-18T11:37:45;34.15;;;17.17;;
35969;SDS011;22448;51.298;6.430;2023-11-18T11:40:13;30.42;;;15.40;;
35969;SDS011;22448;51.298;6.430;2023-11-18T11:42:49;32.28;;;14.93;;
35969;SDS011;22448;51.298;6.430;2023-11-18T11:45:22;34.75;;;14.98;;
35969;SDS011;22448;51.298;6.430;2023-11-18T11:47:55;30.52;;;14.15;;
35969;SDS011;22448;51.298;6.430;2023-11-18T11:50:45;31.80;;;14.85;;
35969;SDS011;22448;51.298;6.430;2023-11-18T11:53:19;26.60;;;13.88;;
35969;SDS011;22448;51.298;6.430;2023-11-18T11:55:51;26.33;;;10.27;;
35969;SDS011;22448;51.298;6.430;2023-11-18T11:58:30;24.60;;;14.18;;
35969;SDS011;22448;51.298;6.430;2023-11-18T12:01:02;29.00;;;14.68;;
35969;SDS011;22448;51.298;6.430;2023-11-18T12:04:00;23.17;;;13.02;;
35969;SDS011;22448;51.298;6.430;2023-11-18T12:06:47;27.60;;;12.93;;
35969;SDS011;22448;51.298;6.430;2023-11-18T12:09:29;23.15;;;12.73;;
35969;SDS011;22448;51.298;6.430;2023-11-18T12:11:59;26.80;;;13.60;;
35969;SDS011;22448;51.298;6.430;2023-11-18T12:14:29;26.00;;;13.27;;
35969;SDS011;22448;51.298;6.430;2023-11-18T12:17:03;28.70;;;11.85;;
35969;SDS011;22448;51.298;6.430;2023-11-18T12:19:38;26.00;;;12.20;;
35969;SDS011;22448;51.298;6.430;2023-11-18T12:25:30;23.52;;;12.27;;
35969;SDS011;22448;51.298;6.430;2023-11-18T12:33:03;28.85;;;13.70;;
35969;SDS011;22448;51.298;6.430;2023-11-18T12:36:36;31.92;;;13.55;;
35969;SDS011;22448;51.298;6.430;2023-11-18T12:41:43;25.80;;;11.02;;
35969;SDS011;22448;51.298;6.430;2023-11-18T12:49:22;13.63;;;8.57;;
35969;SDS011;22448;51.298;6.430;2023-11-18T12:51:51;23.17;;;8.57;;
35969;SDS011;22448;51.298;6.430;2023-11-18T12:54:19;18.90;;;8.05;;
35969;SDS011;22448;51.298;6.430;2023-11-18T12:56:50;23.52;;;7.82;;
35969;SDS011;22448;51.298;6.430;2023-11-18T12:59:20;15.63;;;6.35;;
35969;SDS011;22448;51.298;6.430;2023-11-18T13:01:48;15.63;;;5.88;;
35969;SDS011;22448;51.298;6.430;2023-11-18T13:04:20;16.63;;;5.65;;
35969;SDS011;22448;51.298;6.430;2023-11-18T13:06:48;13.95;;;5.53;;
35969;SDS011;22448;51.298;6.430;2023-11-18T13:09:17;11.98;;;4.90;;
35969;SDS011;22448;51.298;6.430;2023-11-18T13:11:58;16.08;;;4.45;;
35969;SDS011;22448;51.298;6.430;2023-11-18T13:14:31;13.73;;;4.50;;
35969;SDS011;22448;51.298;6.430;2023-11-18T13:17:09;15.45;;;4.03;;
35969;SDS011;22448;51.298;6.430;2023-11-18T13:19:39;10.57;;;4.10;;
35969;SDS011;22448;51.298;6.430;2023-11-18T13:22:08;7.85;;;3.63;;
35969;SDS011;22448;51.298;6.430;2023-11-18T13:24:36;15.70;;;4.80;;
35969;SDS011;22448;51.298;6.430;2023-11-18T13:27:07;12.73;;;4.50;;
35969;SDS011;22448;51.298;6.430;2023-11-18T13:29:37;10.85;;;5.60;;
35969;SDS011;22448;51.298;6.430;2023-11-18T13:32:11;23.23;;;7.68;;
35969;SDS011;22448;51.298;6.430;2023-11-18T13:34:39;16.15;;;6.80;;
35969;SDS011;22448;51.298;6.430;2023-11-18T13:37:08;19.92;;;7.53;;
35969;SDS011;22448;51.298;6.430;2023-11-18T13:39:53;21.27;;;7.93;;
35969;SDS011;22448;51.298;6.430;2023-11-18T13:42:30;13.35;;;7.35;;
35969;SDS011;22448;51.298;6.430;2023-11-18T13:45:29;11.70;;;6.47;;
35969;SDS011;22448;51.298;6.430;2023-11-18T13:48:05;15.65;;;6.22;;
35969;SDS011;22448;51.298;6.430;2023-11-18T13:50:35;20.95;;;6.88;;
35969;SDS011;22448;51.298;6.430;2023-11-18T13:53:05;13.60;;;6.80;;
35969;SDS011;22448;51.298;6.430;2023-11-18T13:55:32;17.95;;;7.40;;
35969;SDS011;22448;51.298;6.430;2023-11-18T13:58:00;16.83;;;7.70;;
35969;SDS011;22448;51.298;6.430;2023-11-18T14:00:27;18.10;;;8.05;;
35969;SDS011;22448;51.298;6.430;2023-11-18T14:02:58;18.35;;;8.52;;
35969;SDS011;22448;51.298;6.430;2023-11-18T14:05:26;18.60;;;8.73;;
35969;SDS011;22448;51.298;6.430;2023-11-18T14:07:54;21.38;;;8.55;;
35969;SDS011;22448;51.298;6.430;2023-11-18T14:10:35;13.88;;;8.13;;
35969;SDS011;22448;51.298;6.430;2023-11-18T14:13:07;14.57;;;7.95;;
35969;SDS011;22448;51.298;6.430;2023-11-18T14:15:46;15.65;;;7.07;;
35969;SDS011;22448;51.298;6.430;2023-11-18T14:18:14;19.77;;;7.47;;
35969;SDS011;22448;51.298;6.430;2023-11-18T14:20:42;16.92;;;7.18;;
35969;SDS011;22448;51.298;6.430;2023-11-18T14:23:08;15.25;;;5.10;;
35969;SDS011;22448;51.298;6.430;2023-11-18T14:25:37;11.65;;;5.07;;
35969;SDS011;22448;51.298;6.430;2023-11-18T14:28:04;9.88;;;4.57;;
35969;SDS011;22448;51.298;6.430;2023-11-18T14:30:35;14.65;;;4.63;;
35969;SDS011;22448;51.298;6.430;2023-11-18T14:33:02;11.05;;;5.20;;
35969;SDS011;22448;51.298;6.430;2023-11-18T14:35:30;13.23;;;4.72;;
35969;SDS011;22448;51.298;6.430;2023-11-18T14:37:57;13.68;;;4.38;;
35969;SDS011;22448;51.298;6.430;2023-11-18T14:40:24;13.40;;;5.38;;
35969;SDS011;22448;51.298;6.430;2023-11-18T14:42:51;16.52;;;4.22;;
35969;SDS011;22448;51.298;6.430;2023-11-18T14:45:18;8.35;;;3.88;;
35969;SDS011;22448;51.298;6.430;2023-11-18T14:47:45;12.50;;;4.28;;
35969;SDS011;22448;51.298;6.430;2023-11-18T14:50:14;10.93;;;3.50;;
35969;SDS011;22448;51.298;6.430;2023-11-18T14:52:47;7.30;;;3.92;;
35969;SDS011;22448;51.298;6.430;2023-11-18T14:55:27;11.50;;;4.25;;
35969;SDS011;22448;51.298;6.430;2023-11-18T14:57:54;14.27;;;3.60;;
35969;SDS011;22448;51.298;6.430;2023-11-18T15:00:22;7.15;;;3.78;;
35969;SDS011;22448;51.298;6.430;2023-11-18T15:02:58;7.85;;;4.55;;
35969;SDS011;22448;51.298;6.430;2023-11-18T15:05:26;11.80;;;5.88;;
35969;SDS011;22448;51.298;6.430;2023-11-18T15:07:55;12.23;;;4.72;;
35969;SDS011;22448;51.298;6.430;2023-11-18T15:10:31;19.15;;;7.43;;
35969;SDS011;22448;51.298;6.430;2023-11-18T15:12:58;15.30;;;5.80;;